Flight Track Log - Related Links

Times and Time Zones

All times are in EST time to prevent confusion due to time zone crossing. See the N612CT flight status page for this flight to view local times or setup timezone preferences in your user account.


Time Position Orientation Groundspeed Altitude Reporting Facility
EST Latitude Longitude Course Direction KTS MPH feet Rate Location/Type
Sat 01:13:53 PM 25.9011 -80.2428 85° East 102 117 1,500  Level Miami Center
Sat 01:14:54 PM 25.9106 -80.2061 74° East 146 168 2,000 443 Climbing Miami Center
Sat 01:15:55 PM 25.9497 -80.2281 333° Northwest 161 185 2,400 878 Climbing Miami Center
Sat 01:16:57 PM 25.9761 -80.2519 321° Northwest 113 130 3,800 1,220 Climbing Miami Center
Sat 01:17:58 PM 25.9814 -80.2936 278° West 126 145 4,900 1,180 Climbing Miami Center
Sat 01:18:59 PM 25.9847 -80.3331 275° West 124 143 6,200 1,011 Climbing Miami Center
Sat 01:21:02 PM 26.0039 -80.4053 286° West 127 146 8,000 590 Climbing Miami Center
Sat 01:22:02 PM 26.0194 -80.4519 290° West 142 163 8,000  Level Miami Center
Sat 01:23:02 PM 26.0350 -80.5031 289° West 162 186 8,000  Level Miami Center
Sat 01:24:02 PM 26.0525 -80.5522 292° West 167 192 8,000  Level Miami Center
Sat 01:25:02 PM 26.0678 -80.6036 288° West 172 198 8,000  Level Miami Center
Sat 01:26:02 PM 26.0981 -80.6483 307° West 172 198 8,000  Level Miami Center
Sat 01:27:02 PM 26.1347 -80.6867 317° Northwest 177 204 8,000  Level Miami Center
Sat 01:28:02 PM 26.1775 -80.7228 323° Northwest 183 211 8,000  Level Miami Center
Sat 01:29:02 PM 26.2206 -80.7519 329° Northwest 183 211 8,000  Level Miami Center
Sat 01:30:02 PM 26.2617 -80.7833 326° Northwest 183 211 8,000  Level Miami Center
Sat 01:31:02 PM 26.3086 -80.8175 327° Northwest 183 211 8,000  Level Miami Center
Sat 01:32:02 PM 26.3497 -80.8442 330° Northwest 189 217 8,000  Level Miami Center
Sat 01:33:02 PM 26.3947 -80.8783 326° Northwest 184 212 8,000  Level Miami Center
Sat 01:34:02 PM 26.4339 -80.9028 331° Northwest 184 212 8,000  Level Miami Center
Sat 01:35:02 PM 26.4831 -80.9369 328° Northwest 184 212 8,000  Level Miami Center
Sat 01:36:02 PM 26.5281 -80.9686 328° Northwest 195 224 8,000  Level Miami Center
Sat 01:37:02 PM 26.5669 -80.9956 328° Northwest 189 217 8,000  Level Miami Center
Sat 01:38:02 PM 26.6078 -81.0250 327° Northwest 184 212 8,000  Level Miami Center
Sat 01:39:02 PM 26.6569 -81.0614 327° Northwest 189 217 8,000  Level Miami Center
Sat 01:40:02 PM 26.7000 -81.0908 329° Northwest 189 217 8,000  Level Miami Center
Sat 01:41:02 PM 26.7428 -81.1228 326° Northwest 189 217 8,000  Level Miami Center
Sat 01:42:02 PM 26.7836 -81.1522 327° Northwest 184 212 8,000  Level Miami Center
Sat 01:43:02 PM 26.8267 -81.1817 329° Northwest 184 212 8,000  Level Miami Center
Sat 01:44:02 PM 26.8656 -81.2086 328° Northwest 184 212 8,000  Level Miami Center
Sat 01:45:02 PM 26.9064 -81.2381 327° Northwest 184 212 8,000 -50 Level Miami Center
Sat 01:46:02 PM 26.9492 -81.2700 326° Northwest 190 219 7,900 -50 Descending Miami Center
Sat 01:47:02 PM 26.9942 -81.2997 330° Northwest 190 219 7,900 50 Level Miami Center
Sat 01:48:02 PM 27.0350 -81.3314 325° Northwest 185 213 8,000 50 Climbing Miami Center
Sat 01:49:02 PM 27.0822 -81.3636 329° Northwest 180 207 8,000 -50 Level Miami Center
Sat 01:50:02 PM 27.1208 -81.3931 326° Northwest 189 217 7,900 -50 Descending Miami Center
Sat 01:51:02 PM 27.1617 -81.4203 329° Northwest 189 217 7,900  Level Miami Center
Sat 01:52:02 PM 27.2044 -81.4525 326° Northwest 189 217 7,900  Level Miami Center
Sat 01:53:02 PM 27.2475 -81.4822 328° Northwest 189 217 7,900  Level Miami Center
Sat 01:54:02 PM 27.2903 -81.5119 328° Northwest 189 217 7,900  Level Miami Center
Sat 01:55:02 PM 27.3331 -81.5442 326° Northwest 189 217 7,900  Level Miami Center
Sat 01:56:02 PM 27.3739 -81.5736 327° Northwest 189 217 7,900  Level Miami Center
Sat 01:57:02 PM 27.4167 -81.6036 328° Northwest 189 217 7,900  Level Miami Center
Sat 01:58:02 PM 27.4594 -81.6358 326° Northwest 189 217 7,900 -250 Level Miami Center
Sat 01:59:02 PM 27.5044 -81.6656 330° Northwest 189 217 7,400 -500 Descending Miami Center
Sat 02:00:02 PM 27.5553 -81.7031 327° Northwest 189 217 6,900 -550 Descending Miami Center
Sat 02:01:02 PM 27.5961 -81.7328 327° Northwest 189 217 6,300 -600 Descending Miami Center
Sat 02:02:02 PM 27.6431 -81.7653 328° Northwest 189 217 5,700 -600 Descending Miami Center
Sat 02:03:02 PM 27.6939 -81.8025 327° Northwest 195 224 5,100 -600 Descending Miami Center
Sat 02:04:02 PM 27.7386 -81.8350 327° Northwest 195 224 4,500 -550 Descending Miami Center
Sat 02:05:02 PM 27.7833 -81.8697 326° Northwest 195 224 4,000 -250 Descending Miami Center
Sat 02:06:02 PM 27.8261 -81.8975 330° Northwest 190 219 4,000  Level Miami Center
Sat 02:07:02 PM 27.8669 -81.9275 327° Northwest 185 213 4,000 -353 Level Miami Center
Sat 02:08:35 PM 27.9333 -82.0000 316° Northwest 196 226 3,100 -418 Descending Tampa TRACON
Sat 02:09:40 PM 27.9333 -82.0500 270° West 177 204 2,900 -476 Descending Tampa TRACON
Sat 02:10:41 PM 27.9333 -82.1167 270° West 185 213 2,100 -496 Descending Tampa TRACON
Sat 02:11:41 PM 27.9500 -82.1667 291° West 150 173 1,900 -100 Descending Tampa TRACON
Sat 02:12:41 PM 27.9667 -82.2167 291° West 151 174 1,900  Level Tampa TRACON
Sat 02:13:47 PM 27.9500 -82.2500 240° Southwest 142 163 1,900  Level Tampa TRACON
Sat 02:14:29 PM 27.9667 -82.2833 300° West 142 163 1,900  Level Tampa TRACON
Sat 02:15:29 PM 27.9833 -82.2500 60° Northeast 129 148 1,900  Level Tampa TRACON
Sat 02:16:29 PM 28.0167 -82.2167 41° Northeast 132 152 1,900  Level Tampa TRACON
Sat 02:17:29 PM 28.0333 -82.2000 41° Northeast 142 163 1,900  Level Tampa TRACON
Sat 02:18:29 PM 28.0667 -82.1833 24° Northeast 134 154 1,900  Level Tampa TRACON
Sat 02:19:23 PM 28.1000 -82.1667 24° Northeast 133 153 1,900 -95 Level Tampa TRACON
Sat 02:20:35 PM 28.1333 -82.2000 319° Northwest 149 171 1,700 -136 Descending Tampa TRACON
Sat 02:21:35 PM 28.1167 -82.2500 249° West 147 169 1,600  Descending Tampa TRACON
Sat 02:22:41 PM 28.0833 -82.2833 221° Southwest 133 153 1,700 -286 Climbing Tampa TRACON
Sat 02:23:41 PM 28.0500 -82.3000 204° Southwest 123 142 1,000 -700 Descending Tampa TRACON
Sat 02:25:00 PM 28.1085 -82.3000 North  Level FlightAware Approximate
Sat 02:32:00 PM 28.2167 -82.3667 310° West  Level FlightAware Approximate
Sat 02:33:00 PM 28.2213 -82.3746 310° West  Level Estimated
Sat 02:34:00 PM 28.2213 -82.3746 310° West  Level Estimated

Login

Don't have an account? Register now (free) for customized features, flight alerts, and more!